sensor_id;sensor_type;location;lat;lon;timestamp;temperature;humidity
32348;DHT22;18821;44.800;10.326;2023-02-18T00:01:19;10.50;99.90
32348;DHT22;18821;44.800;10.326;2023-02-18T00:03:46;10.50;99.90
32348;DHT22;18821;44.800;10.326;2023-02-18T00:06:22;10.20;99.90
32348;DHT22;18821;44.800;10.326;2023-02-18T00:08:50;10.00;99.90
32348;DHT22;18821;44.800;10.326;2023-02-18T00:11:17;9.90;99.90
32348;DHT22;18821;44.800;10.326;2023-02-18T00:13:49;9.80;99.90
32348;DHT22;18821;44.800;10.326;2023-02-18T00:16:15;9.60;1.00
32348;DHT22;18821;44.800;10.326;2023-02-18T00:18:41;9.40;1.00
32348;DHT22;18821;44.800;10.326;2023-02-18T00:21:07;9.30;1.00
32348;DHT22;18821;44.800;10.326;2023-02-18T00:23:35;9.00;1.00
32348;DHT22;18821;44.800;10.326;2023-02-18T00:26:05;8.70;1.00
32348;DHT22;18821;44.800;10.326;2023-02-18T00:28:31;8.50;1.00
32348;DHT22;18821;44.800;10.326;2023-02-18T00:31:11;8.40;1.00
32348;DHT22;18821;44.800;10.326;2023-02-18T00:33:37;8.20;1.00
32348;DHT22;18821;44.800;10.326;2023-02-18T00:36:05;8.20;1.00
32348;DHT22;18821;44.800;10.326;2023-02-18T00:38:31;8.10;1.00
32348;DHT22;18821;44.800;10.326;2023-02-18T00:40:58;8.10;1.00
32348;DHT22;18821;44.800;10.326;2023-02-18T00:43:25;8.10;1.00
32348;DHT22;18821;44.800;10.326;2023-02-18T00:45:51;8.10;1.00
32348;DHT22;18821;44.800;10.326;2023-02-18T00:48:17;8.00;1.00
32348;DHT22;18821;44.800;10.326;2023-02-18T00:50:44;8.00;1.00
32348;DHT22;18821;44.800;10.326;2023-02-18T00:53:10;8.00;1.00
32348;DHT22;18821;44.800;10.326;2023-02-18T00:55:41;8.00;1.00
32348;DHT22;18821;44.800;10.326;2023-02-18T00:58:07;8.00;1.00
32348;DHT22;18821;44.800;10.326;2023-02-18T01:00:33;8.00;1.00
32348;DHT22;18821;44.800;10.326;2023-02-18T01:02:59;8.00;1.00
32348;DHT22;18821;44.800;10.326;2023-02-18T01:05:25;8.10;1.00
32348;DHT22;18821;44.800;10.326;2023-02-18T01:07:51;8.10;1.00
32348;DHT22;18821;44.800;10.326;2023-02-18T01:10:17;8.10;1.00
32348;DHT22;18821;44.800;10.326;2023-02-18T01:12:43;8.10;1.00
32348;DHT22;18821;44.800;10.326;2023-02-18T01:15:13;8.10;1.00
32348;DHT22;18821;44.800;10.326;2023-02-18T01:17:41;8.10;1.00
32348;DHT22;18821;44.800;10.326;2023-02-18T01:20:07;8.00;1.00
32348;DHT22;18821;44.800;10.326;2023-02-18T01:22:34;8.00;1.00
32348;DHT22;18821;44.800;10.326;2023-02-18T01:25:00;8.00;1.00
32348;DHT22;18821;44.800;10.326;2023-02-18T01:27:26;8.00;1.00
32348;DHT22;18821;44.800;10.326;2023-02-18T01:29:52;7.90;1.00
32348;DHT22;18821;44.800;10.326;2023-02-18T01:32:18;7.90;1.00
32348;DHT22;18821;44.800;10.326;2023-02-18T01:34:44;7.90;1.00
32348;DHT22;18821;44.800;10.326;2023-02-18T01:37:10;7.90;1.00
32348;DHT22;18821;44.800;10.326;2023-02-18T01:39:36;7.90;1.00
32348;DHT22;18821;44.800;10.326;2023-02-18T01:42:02;8.00;1.00
32348;DHT22;18821;44.800;10.326;2023-02-18T01:44:28;7.90;1.00
32348;DHT22;18821;44.800;10.326;2023-02-18T01:46:55;7.90;1.00
32348;DHT22;18821;44.800;10.326;2023-02-18T01:49:31;7.80;1.00
32348;DHT22;18821;44.800;10.326;2023-02-18T01:52:14;7.80;1.00
32348;DHT22;18821;44.800;10.326;2023-02-18T01:54:43;7.80;1.00
32348;DHT22;18821;44.800;10.326;2023-02-18T01:57:15;7.70;1.00
32348;DHT22;18821;44.800;10.326;2023-02-18T01:59:49;7.60;1.00
32348;DHT22;18821;44.800;10.326;2023-02-18T02:02:20;7.60;1.00
32348;DHT22;18821;44.800;10.326;2023-02-18T02:04:48;7.60;1.00
32348;DHT22;18821;44.800;10.326;2023-02-18T02:07:15;7.50;1.00
32348;DHT22;18821;44.800;10.326;2023-02-18T02:09:43;7.60;1.00
32348;DHT22;18821;44.800;10.326;2023-02-18T02:34:47;7.40;1.00
32348;DHT22;18821;44.800;10.326;2023-02-18T02:45:50;7.30;1.00
32348;DHT22;18821;44.800;10.326;2023-02-18T02:53:29;7.20;1.00
32348;DHT22;18821;44.800;10.326;2023-02-18T02:55:55;7.20;1.00
32348;DHT22;18821;44.800;10.326;2023-02-18T02:58:23;7.20;1.00
32348;DHT22;18821;44.800;10.326;2023-02-18T03:11:34;7.00;1.00
32348;DHT22;18821;44.800;10.326;2023-02-18T03:14:09;7.10;1.00
32348;DHT22;18821;44.800;10.326;2023-02-18T03:19:21;7.00;1.00
32348;DHT22;18821;44.800;10.326;2023-02-18T03:22:00;7.00;1.00
32348;DHT22;18821;44.800;10.326;2023-02-18T03:24:45;7.00;1.00
32348;DHT22;18821;44.800;10.326;2023-02-18T03:27:32;7.00;1.00
32348;DHT22;18821;44.800;10.326;2023-02-18T03:30:09;7.00;1.00
32348;DHT22;18821;44.800;10.326;2023-02-18T03:32:37;7.00;1.00
32348;DHT22;18821;44.800;10.326;2023-02-18T03:35:18;7.00;1.00
32348;DHT22;18821;44.800;10.326;2023-02-18T03:37:49;7.00;1.00
32348;DHT22;18821;44.800;10.326;2023-02-18T03:40:18;6.90;1.00
32348;DHT22;18821;44.800;10.326;2023-02-18T03:42:45;7.00;1.00
32348;DHT22;18821;44.800;10.326;2023-02-18T03:45:11;7.00;1.00
32348;DHT22;18821;44.800;10.326;2023-02-18T03:47:37;7.00;1.00
32348;DHT22;18821;44.800;10.326;2023-02-18T03:50:03;7.10;1.00
32348;DHT22;18821;44.800;10.326;2023-02-18T03:52:30;7.00;1.00
32348;DHT22;18821;44.800;10.326;2023-02-18T03:54:58;7.00;1.00
32348;DHT22;18821;44.800;10.326;2023-02-18T03:57:24;7.00;1.00
32348;DHT22;18821;44.800;10.326;2023-02-18T03:59:50;6.90;1.00
32348;DHT22;18821;44.800;10.326;2023-02-18T04:02:15;6.90;1.00
32348;DHT22;18821;44.800;10.326;2023-02-18T04:04:41;6.80;1.00
32348;DHT22;18821;44.800;10.326;2023-02-18T04:07:07;6.70;1.00
32348;DHT22;18821;44.800;10.326;2023-02-18T04:09:33;6.60;1.00
32348;DHT22;18821;44.800;10.326;2023-02-18T04:12:00;6.60;1.00
32348;DHT22;18821;44.800;10.326;2023-02-18T04:14:26;6.60;1.00
32348;DHT22;18821;44.800;10.326;2023-02-18T04:16:52;6.60;1.00
32348;DHT22;18821;44.800;10.326;2023-02-18T04:19:17;6.50;1.00
32348;DHT22;18821;44.800;10.326;2023-02-18T04:21:44;6.50;1.00
32348;DHT22;18821;44.800;10.326;2023-02-18T04:24:10;6.50;1.00
32348;DHT22;18821;44.800;10.326;2023-02-18T04:26:35;6.50;1.00
32348;DHT22;18821;44.800;10.326;2023-02-18T04:29:02;6.40;1.00
32348;DHT22;18821;44.800;10.326;2023-02-18T04:31:28;6.40;1.00
32348;DHT22;18821;44.800;10.326;2023-02-18T04:33:54;6.40;1.00
32348;DHT22;18821;44.800;10.326;2023-02-18T04:36:20;6.30;1.00
32348;DHT22;18821;44.800;10.326;2023-02-18T04:38:47;6.40;1.00
32348;DHT22;18821;44.800;10.326;2023-02-18T04:41:13;6.40;1.00
32348;DHT22;18821;44.800;10.326;2023-02-18T04:43:39;6.40;1.00
32348;DHT22;18821;44.800;10.326;2023-02-18T04:46:04;6.30;1.00
32348;DHT22;18821;44.800;10.326;2023-02-18T04:48:30;6.30;1.00
32348;DHT22;18821;44.800;10.326;2023-02-18T04:50:56;6.20;1.00
32348;DHT22;18821;44.800;10.326;2023-02-18T04:53:22;6.20;1.00
32348;DHT22;18821;44.800;10.326;2023-02-18T04:55:49;6.20;1.00
32348;DHT22;18821;44.800;10.326;2023-02-18T04:58:16;6.10;1.00
32348;DHT22;18821;44.800;10.326;2023-02-18T05:00:42;6.10;1.00
32348;DHT22;18821;44.800;10.326;2023-02-18T05:03:09;6.10;1.00
32348;DHT22;18821;44.800;10.326;2023-02-18T05:05:35;6.10;1.00
32348;DHT22;18821;44.800;10.326;2023-02-18T05:08:01;6.00;1.00
32348;DHT22;18821;44.800;10.326;2023-02-18T05:10:27;6.10;1.00
32348;DHT22;18821;44.800;10.326;2023-02-18T05:12:53;6.10;1.00
32348;DHT22;18821;44.800;10.326;2023-02-18T05:15:19;6.10;1.00
32348;DHT22;18821;44.800;10.326;2023-02-18T05:17:44;6.10;1.00
32348;DHT22;18821;44.800;10.326;2023-02-18T05:20:11;6.10;1.00
32348;DHT22;18821;44.800;10.326;2023-02-18T05:22:37;6.10;1.00
32348;DHT22;18821;44.800;10.326;2023-02-18T05:25:05;6.10;1.00
32348;DHT22;18821;44.800;10.326;2023-02-18T05:27:32;6.00;1.00
32348;DHT22;18821;44.800;10.326;2023-02-18T05:29:58;6.00;1.00
32348;DHT22;18821;44.800;10.326;2023-02-18T05:32:24;6.00;1.00
32348;DHT22;18821;44.800;10.326;2023-02-18T05:34:49;6.00;1.00
32348;DHT22;18821;44.800;10.326;2023-02-18T05:37:16;6.00;1.00
32348;DHT22;18821;44.800;10.326;2023-02-18T05:39:44;6.00;1.00
32348;DHT22;18821;44.800;10.326;2023-02-18T05:42:10;6.00;1.00
32348;DHT22;18821;44.800;10.326;2023-02-18T05:44:36;6.00;1.00
32348;DHT22;18821;44.800;10.326;2023-02-18T05:47:05;6.00;1.00
32348;DHT22;18821;44.800;10.326;2023-02-18T05:49:33;6.00;1.00
32348;DHT22;18821;44.800;10.326;2023-02-18T05:52:01;6.00;1.00
32348;DHT22;18821;44.800;10.326;2023-02-18T05:54:27;6.00;1.00
32348;DHT22;18821;44.800;10.326;2023-02-18T05:56:53;6.00;1.00
32348;DHT22;18821;44.800;10.326;2023-02-18T05:59:20;5.90;1.00
32348;DHT22;18821;44.800;10.326;2023-02-18T06:01:46;5.90;1.00
32348;DHT22;18821;44.800;10.326;2023-02-18T06:04:13;5.90;1.00
32348;DHT22;18821;44.800;10.326;2023-02-18T06:06:39;5.80;1.00
32348;DHT22;18821;44.800;10.326;2023-02-18T06:09:05;5.80;1.00
32348;DHT22;18821;44.800;10.326;2023-02-18T06:11:32;5.90;1.00
32348;DHT22;18821;44.800;10.326;2023-02-18T06:13:58;5.90;1.00
32348;DHT22;18821;44.800;10.326;2023-02-18T06:16:24;5.80;1.00
32348;DHT22;18821;44.800;10.326;2023-02-18T06:18:50;5.80;1.00
32348;DHT22;18821;44.800;10.326;2023-02-18T06:21:16;5.80;1.00
32348;DHT22;18821;44.800;10.326;2023-02-18T06:23:43;5.80;1.00
32348;DHT22;18821;44.800;10.326;2023-02-18T06:26:09;5.80;1.00
32348;DHT22;18821;44.800;10.326;2023-02-18T06:28:34;5.80;1.00
32348;DHT22;18821;44.800;10.326;2023-02-18T06:31:01;5.70;1.00
32348;DHT22;18821;44.800;10.326;2023-02-18T06:33:27;5.80;1.00
32348;DHT22;18821;44.800;10.326;2023-02-18T06:36:02;5.70;1.00
32348;DHT22;18821;44.800;10.326;2023-02-18T06:38:32;5.70;1.00
32348;DHT22;18821;44.800;10.326;2023-02-18T06:40:58;5.70;1.00
32348;DHT22;18821;44.800;10.326;2023-02-18T06:43:24;5.80;1.00
32348;DHT22;18821;44.800;10.326;2023-02-18T06:45:51;5.80;1.00
32348;DHT22;18821;44.800;10.326;2023-02-18T06:48:20;5.80;1.00
32348;DHT22;18821;44.800;10.326;2023-02-18T06:50:46;5.90;1.00
32348;DHT22;18821;44.800;10.326;2023-02-18T06:53:12;6.00;1.00
32348;DHT22;18821;44.800;10.326;2023-02-18T06:55:39;6.00;1.00
32348;DHT22;18821;44.800;10.326;2023-02-18T06:58:06;6.00;1.00
32348;DHT22;18821;44.800;10.326;2023-02-18T07:00:32;6.10;1.00
32348;DHT22;18821;44.800;10.326;2023-02-18T07:02:58;6.20;1.00
32348;DHT22;18821;44.800;10.326;2023-02-18T07:05:24;6.30;1.00
32348;DHT22;18821;44.800;10.326;2023-02-18T07:07:50;6.30;1.00
32348;DHT22;18821;44.800;10.326;2023-02-18T07:10:16;6.30;1.00
32348;DHT22;18821;44.800;10.326;2023-02-18T07:12:42;6.40;1.00
32348;DHT22;18821;44.800;10.326;2023-02-18T07:15:08;6.40;1.00
32348;DHT22;18821;44.800;10.326;2023-02-18T07:17:34;6.50;1.00
32348;DHT22;18821;44.800;10.326;2023-02-18T07:20:00;6.40;1.00
32348;DHT22;18821;44.800;10.326;2023-02-18T07:22:26;6.50;1.00
32348;DHT22;18821;44.800;10.326;2023-02-18T07:24:52;6.50;1.00
32348;DHT22;18821;44.800;10.326;2023-02-18T07:27:20;6.60;1.00
32348;DHT22;18821;44.800;10.326;2023-02-18T07:29:47;6.70;1.00
32348;DHT22;18821;44.800;10.326;2023-02-18T07:32:14;6.70;1.00
32348;DHT22;18821;44.800;10.326;2023-02-18T07:34:41;6.90;1.00
32348;DHT22;18821;44.800;10.326;2023-02-18T07:37:07;6.90;1.00
32348;DHT22;18821;44.800;10.326;2023-02-18T07:39:43;7.00;1.00
32348;DHT22;18821;44.800;10.326;2023-02-18T07:42:12;7.10;1.00
32348;DHT22;18821;44.800;10.326;2023-02-18T07:44:39;7.20;1.00
32348;DHT22;18821;44.800;10.326;2023-02-18T07:47:06;7.20;1.00
32348;DHT22;18821;44.800;10.326;2023-02-18T07:49:33;7.20;1.00
32348;DHT22;18821;44.800;10.326;2023-02-18T07:52:00;7.30;1.00
32348;DHT22;18821;44.800;10.326;2023-02-18T07:54:27;7.40;1.00
32348;DHT22;18821;44.800;10.326;2023-02-18T07:56:53;7.60;1.00
32348;DHT22;18821;44.800;10.326;2023-02-18T07:59:22;7.70;1.00
32348;DHT22;18821;44.800;10.326;2023-02-18T08:01:48;7.90;1.00
32348;DHT22;18821;44.800;10.326;2023-02-18T08:04:15;8.10;1.00
32348;DHT22;18821;44.800;10.326;2023-02-18T08:06:44;8.00;1.00
32348;DHT22;18821;44.800;10.326;2023-02-18T08:09:11;8.00;1.00
32348;DHT22;18821;44.800;10.326;2023-02-18T08:11:38;8.10;1.00
32348;DHT22;18821;44.800;10.326;2023-02-18T08:14:04;8.30;1.00
32348;DHT22;18821;44.800;10.326;2023-02-18T08:16:31;8.40;1.00
32348;DHT22;18821;44.800;10.326;2023-02-18T08:18:58;8.60;1.00
32348;DHT22;18821;44.800;10.326;2023-02-18T08:21:24;8.70;1.00
32348;DHT22;18821;44.800;10.326;2023-02-18T08:23:51;8.70;1.00
32348;DHT22;18821;44.800;10.326;2023-02-18T08:26:18;8.70;1.00
32348;DHT22;18821;44.800;10.326;2023-02-18T08:28:45;8.80;1.00
32348;DHT22;18821;44.800;10.326;2023-02-18T08:31:21;8.90;1.00
32348;DHT22;18821;44.800;10.326;2023-02-18T08:33:48;9.00;1.00
32348;DHT22;18821;44.800;10.326;2023-02-18T08:36:14;9.20;1.00
32348;DHT22;18821;44.800;10.326;2023-02-18T08:38:40;9.30;1.00
32348;DHT22;18821;44.800;10.326;2023-02-18T08:41:07;9.50;1.00
32348;DHT22;18821;44.800;10.326;2023-02-18T08:43:34;9.70;1.00
32348;DHT22;18821;44.800;10.326;2023-02-18T08:45:59;9.80;1.00
32348;DHT22;18821;44.800;10.326;2023-02-18T08:48:26;9.90;1.00
32348;DHT22;18821;44.800;10.326;2023-02-18T08:50:52;10.00;99.90
32348;DHT22;18821;44.800;10.326;2023-02-18T08:53:18;10.20;99.90
32348;DHT22;18821;44.800;10.326;2023-02-18T08:55:45;10.30;99.90
32348;DHT22;18821;44.800;10.326;2023-02-18T08:58:11;10.50;99.90
32348;DHT22;18821;44.800;10.326;2023-02-18T09:00:39;10.60;99.90
32348;DHT22;18821;44.800;10.326;2023-02-18T09:03:05;10.50;99.90
32348;DHT22;18821;44.800;10.326;2023-02-18T09:05:31;10.60;99.90
32348;DHT22;18821;44.800;10.326;2023-02-18T09:07:57;10.70;99.90
32348;DHT22;18821;44.800;10.326;2023-02-18T09:10:24;10.80;99.90
32348;DHT22;18821;44.800;10.326;2023-02-18T09:12:50;10.90;99.90
32348;DHT22;18821;44.800;10.326;2023-02-18T09:15:16;10.90;99.90
32348;DHT22;18821;44.800;10.326;2023-02-18T09:17:43;10.80;99.90
32348;DHT22;18821;44.800;10.326;2023-02-18T09:20:09;10.70;99.90
32348;DHT22;18821;44.800;10.326;2023-02-18T09:22:35;10.90;99.90
32348;DHT22;18821;44.800;10.326;2023-02-18T09:25:02;11.20;99.90
32348;DHT22;18821;44.800;10.326;2023-02-18T09:27:28;11.40;99.90
32348;DHT22;18821;44.800;10.326;2023-02-18T09:29:54;11.60;99.90
32348;DHT22;18821;44.800;10.326;2023-02-18T09:32:20;11.70;26.40
32348;DHT22;18821;44.800;10.326;2023-02-18T09:34:46;11.60;99.90
32348;DHT22;18821;44.800;10.326;2023-02-18T09:37:11;11.60;99.90
32348;DHT22;18821;44.800;10.326;2023-02-18T09:39:39;11.60;99.90
32348;DHT22;18821;44.800;10.326;2023-02-18T09:42:10;11.80;99.90
32348;DHT22;18821;44.800;10.326;2023-02-18T09:44:41;11.90;61.20
32348;DHT22;18821;44.800;10.326;2023-02-18T09:47:16;11.90;66.10
32348;DHT22;18821;44.800;10.326;2023-02-18T09:49:53;11.90;99.90
32348;DHT22;18821;44.800;10.326;2023-02-18T09:52:29;12.00;99.90
32348;DHT22;18821;44.800;10.326;2023-02-18T09:54:56;12.10;99.90
32348;DHT22;18821;44.800;10.326;2023-02-18T09:57:29;12.20;79.70
32348;DHT22;18821;44.800;10.326;2023-02-18T10:00:00;12.30;44.00
32348;DHT22;18821;44.800;10.326;2023-02-18T10:02:40;12.20;47.00
32348;DHT22;18821;44.800;10.326;2023-02-18T10:05:12;12.20;43.80
32348;DHT22;18821;44.800;10.326;2023-02-18T10:07:39;12.20;99.90
32348;DHT22;18821;44.800;10.326;2023-02-18T10:10:26;12.10;99.90
32348;DHT22;18821;44.800;10.326;2023-02-18T10:12:56;11.80;99.90
32348;DHT22;18821;44.800;10.326;2023-02-18T10:15:27;11.70;99.90
32348;DHT22;18821;44.800;10.326;2023-02-18T10:17:56;11.90;99.90
32348;DHT22;18821;44.800;10.326;2023-02-18T10:20:25;12.10;99.90
32348;DHT22;18821;44.800;10.326;2023-02-18T10:22:53;12.20;99.90
32348;DHT22;18821;44.800;10.326;2023-02-18T10:25:22;12.20;99.90
32348;DHT22;18821;44.800;10.326;2023-02-18T10:27:51;12.30;99.90
32348;DHT22;18821;44.800;10.326;2023-02-18T10:30:31;12.40;99.90
32348;DHT22;18821;44.800;10.326;2023-02-18T10:36:11;12.40;89.70
32348;DHT22;18821;44.800;10.326;2023-02-18T10:39:01;12.50;84.80
32348;DHT22;18821;44.800;10.326;2023-02-18T10:41:59;12.00;99.90
32348;DHT22;18821;44.800;10.326;2023-02-18T10:47:19;12.30;99.90
32348;DHT22;18821;44.800;10.326;2023-02-18T10:49:58;12.20;99.90
32348;DHT22;18821;44.800;10.326;2023-02-18T10:52:27;12.70;99.90
32348;DHT22;18821;44.800;10.326;2023-02-18T10:55:01;12.60;20.50
32348;DHT22;18821;44.800;10.326;2023-02-18T10:57:29;12.60;91.60
32348;DHT22;18821;44.800;10.326;2023-02-18T11:02:28;12.50;82.10
32348;DHT22;18821;44.800;10.326;2023-02-18T11:04:58;12.60;54.20
32348;DHT22;18821;44.800;10.326;2023-02-18T11:07:32;12.70;8.40
32348;DHT22;18821;44.800;10.326;2023-02-18T11:10:08;12.80;1.00
32348;DHT22;18821;44.800;10.326;2023-02-18T11:13:15;13.00;1.00
32348;DHT22;18821;44.800;10.326;2023-02-18T11:15:33;13.20;1.00
32348;DHT22;18821;44.800;10.326;2023-02-18T11:18:27;13.10;1.00
32348;DHT22;18821;44.800;10.326;2023-02-18T11:21:01;12.90;1.00
32348;DHT22;18821;44.800;10.326;2023-02-18T11:23:27;12.90;1.00
32348;DHT22;18821;44.800;10.326;2023-02-18T11:26:05;12.90;1.00
32348;DHT22;18821;44.800;10.326;2023-02-18T11:28:49;12.90;1.00
32348;DHT22;18821;44.800;10.326;2023-02-18T11:31:23;13.00;1.00
32348;DHT22;18821;44.800;10.326;2023-02-18T11:34:00;13.40;1.00
32348;DHT22;18821;44.800;10.326;2023-02-18T11:36:34;13.80;99.90
32348;DHT22;18821;44.800;10.326;2023-02-18T11:39:03;14.00;1.00
32348;DHT22;18821;44.800;10.326;2023-02-18T11:44:05;14.00;50.50
32348;DHT22;18821;44.800;10.326;2023-02-18T11:46:32;13.70;1.00
32348;DHT22;18821;44.800;10.326;2023-02-18T11:49:21;14.00;1.00
32348;DHT22;18821;44.800;10.326;2023-02-18T11:51:48;14.20;1.00
32348;DHT22;18821;44.800;10.326;2023-02-18T11:54:29;14.10;99.90
32348;DHT22;18821;44.800;10.326;2023-02-18T11:57:05;13.90;1.00
32348;DHT22;18821;44.800;10.326;2023-02-18T11:59:37;13.80;1.00
32348;DHT22;18821;44.800;10.326;2023-02-18T12:02:18;14.10;99.90
32348;DHT22;18821;44.800;10.326;2023-02-18T12:07:44;14.00;99.90
32348;DHT22;18821;44.800;10.326;2023-02-18T12:13:02;14.10;1.00
32348;DHT22;18821;44.800;10.326;2023-02-18T12:36:43;14.40;1.00
32348;DHT22;18821;44.800;10.326;2023-02-18T12:40:02;14.40;1.00
32348;DHT22;18821;44.800;10.326;2023-02-18T12:42:01;14.30;1.00
32348;DHT22;18821;44.800;10.326;2023-02-18T13:01:53;15.10;99.90
32348;DHT22;18821;44.800;10.326;2023-02-18T13:04:34;15.20;99.90
32348;DHT22;18821;44.800;10.326;2023-02-18T13:07:42;15.20;1.00
32348;DHT22;18821;44.800;10.326;2023-02-18T13:10:17;14.90;99.90
32348;DHT22;18821;44.800;10.326;2023-02-18T13:13:08;14.80;99.90
32348;DHT22;18821;44.800;10.326;2023-02-18T13:15:40;14.90;99.90
32348;DHT22;18821;44.800;10.326;2023-02-18T13:18:31;15.20;99.90
32348;DHT22;18821;44.800;10.326;2023-02-18T13:21:11;15.40;1.00
32348;DHT22;18821;44.800;10.326;2023-02-18T13:26:45;15.30;1.00
32348;DHT22;18821;44.800;10.326;2023-02-18T13:32:11;15.70;99.90
32348;DHT22;18821;44.800;10.326;2023-02-18T13:37:31;15.60;99.90
32348;DHT22;18821;44.800;10.326;2023-02-18T13:40:01;15.50;99.90
32348;DHT22;18821;44.800;10.326;2023-02-18T13:42:36;15.40;99.90
32348;DHT22;18821;44.800;10.326;2023-02-18T13:47:45;15.60;99.90
32348;DHT22;18821;44.800;10.326;2023-02-18T14:00:54;15.40;99.90
32348;DHT22;18821;44.800;10.326;2023-02-18T14:06:21;15.20;99.90
32348;DHT22;18821;44.800;10.326;2023-02-18T14:08:48;15.40;99.90
32348;DHT22;18821;44.800;10.326;2023-02-18T14:13:48;15.70;99.90
32348;DHT22;18821;44.800;10.326;2023-02-18T14:16:15;15.80;99.90
32348;DHT22;18821;44.800;10.326;2023-02-18T14:23:41;15.80;1.00
32348;DHT22;18821;44.800;10.326;2023-02-18T14:28:55;15.50;99.20
32348;DHT22;18821;44.800;10.326;2023-02-18T14:31:34;15.30;99.90
32348;DHT22;18821;44.800;10.326;2023-02-18T14:36:56;15.10;99.90
32348;DHT22;18821;44.800;10.326;2023-02-18T14:42:44;15.10;99.90
32348;DHT22;18821;44.800;10.326;2023-02-18T14:50:47;15.10;1.00
32348;DHT22;18821;44.800;10.326;2023-02-18T14:53:21;15.10;1.00
32348;DHT22;18821;44.800;10.326;2023-02-18T14:55:50;15.20;99.90
32348;DHT22;18821;44.800;10.326;2023-02-18T14:58:40;15.40;99.90
32348;DHT22;18821;44.800;10.326;2023-02-18T15:03:40;15.30;99.90
32348;DHT22;18821;44.800;10.326;2023-02-18T15:06:28;15.40;99.90
32348;DHT22;18821;44.800;10.326;2023-02-18T15:08:57;15.40;99.90
32348;DHT22;18821;44.800;10.326;2023-02-18T15:11:34;15.40;99.90
32348;DHT22;18821;44.800;10.326;2023-02-18T15:14:13;15.50;99.90
32348;DHT22;18821;44.800;10.326;2023-02-18T15:16:41;15.40;99.90
32348;DHT22;18821;44.800;10.326;2023-02-18T15:19:17;15.40;99.90
32348;DHT22;18821;44.800;10.326;2023-02-18T15:21:47;15.30;99.90
32348;DHT22;18821;44.800;10.326;2023-02-18T15:27:03;15.10;1.00
32348;DHT22;18821;44.800;10.326;2023-02-18T15:29:34;15.10;1.00
32348;DHT22;18821;44.800;10.326;2023-02-18T15:32:16;15.10;1.00
32348;DHT22;18821;44.800;10.326;2023-02-18T15:34:44;15.10;1.00
32348;DHT22;18821;44.800;10.326;2023-02-18T15:37:12;15.00;1.00
32348;DHT22;18821;44.800;10.326;2023-02-18T15:39:40;14.90;1.00
32348;DHT22;18821;44.800;10.326;2023-02-18T15:44:56;14.90;1.00
32348;DHT22;18821;44.800;10.326;2023-02-18T15:47:24;14.80;1.00
32348;DHT22;18821;44.800;10.326;2023-02-18T15:49:59;14.80;23.80
32348;DHT22;18821;44.800;10.326;2023-02-18T15:52:29;14.70;99.90
32348;DHT22;18821;44.800;10.326;2023-02-18T15:54:59;14.70;99.90
32348;DHT22;18821;44.800;10.326;2023-02-18T15:57:28;14.70;99.90
32348;DHT22;18821;44.800;10.326;2023-02-18T16:00:04;14.70;99.90
32348;DHT22;18821;44.800;10.326;2023-02-18T16:02:32;14.60;99.90
32348;DHT22;18821;44.800;10.326;2023-02-18T16:05:00;14.60;99.90
32348;DHT22;18821;44.800;10.326;2023-02-18T16:07:32;14.60;1.00
32348;DHT22;18821;44.800;10.326;2023-02-18T16:10:20;14.50;1.00
32348;DHT22;18821;44.800;10.326;2023-02-18T16:12:51;14.40;14.80
32348;DHT22;18821;44.800;10.326;2023-02-18T16:15:28;14.40;99.90
32348;DHT22;18821;44.800;10.326;2023-02-18T16:17:55;14.30;99.90
32348;DHT22;18821;44.800;10.326;2023-02-18T16:20:35;14.30;1.00
32348;DHT22;18821;44.800;10.326;2023-02-18T16:23:10;14.30;99.90
32348;DHT22;18821;44.800;10.326;2023-02-18T16:25:45;14.20;1.00
32348;DHT22;18821;44.800;10.326;2023-02-18T16:28:15;14.20;1.00
32348;DHT22;18821;44.800;10.326;2023-02-18T16:30:42;14.20;1.00
32348;DHT22;18821;44.800;10.326;2023-02-18T16:33:10;14.10;99.90
32348;DHT22;18821;44.800;10.326;2023-02-18T16:35:37;14.10;99.90
32348;DHT22;18821;44.800;10.326;2023-02-18T16:38:04;14.00;1.00
32348;DHT22;18821;44.800;10.326;2023-02-18T16:40:34;14.00;1.00
32348;DHT22;18821;44.800;10.326;2023-02-18T16:43:10;13.90;1.00
32348;DHT22;18821;44.800;10.326;2023-02-18T16:45:44;13.80;1.00
32348;DHT22;18821;44.800;10.326;2023-02-18T16:48:35;13.70;1.00
32348;DHT22;18821;44.800;10.326;2023-02-18T16:51:50;13.70;1.00
32348;DHT22;18821;44.800;10.326;2023-02-18T16:54:01;13.60;1.00
32348;DHT22;18821;44.800;10.326;2023-02-18T16:56:32;13.50;1.00
32348;DHT22;18821;44.800;10.326;2023-02-18T16:59:03;13.50;99.90
32348;DHT22;18821;44.800;10.326;2023-02-18T17:01:41;13.40;99.90
32348;DHT22;18821;44.800;10.326;2023-02-18T17:04:17;13.40;99.90
32348;DHT22;18821;44.800;10.326;2023-02-18T17:06:56;13.40;99.90
32348;DHT22;18821;44.800;10.326;2023-02-18T17:09:36;13.30;99.90
32348;DHT22;18821;44.800;10.326;2023-02-18T17:12:23;13.30;1.00
32348;DHT22;18821;44.800;10.326;2023-02-18T17:14:52;13.30;1.00
32348;DHT22;18821;44.800;10.326;2023-02-18T17:17:45;13.30;1.00
32348;DHT22;18821;44.800;10.326;2023-02-18T17:20:14;13.20;1.00
32348;DHT22;18821;44.800;10.326;2023-02-18T17:22:51;13.10;1.00
32348;DHT22;18821;44.800;10.326;2023-02-18T17:25:36;13.10;9.00
32348;DHT22;18821;44.800;10.326;2023-02-18T17:28:08;13.10;1.00
32348;DHT22;18821;44.800;10.326;2023-02-18T17:30:41;13.10;1.00
32348;DHT22;18821;44.800;10.326;2023-02-18T17:33:27;13.10;65.40
32348;DHT22;18821;44.800;10.326;2023-02-18T17:35:59;13.00;45.80
32348;DHT22;18821;44.800;10.326;2023-02-18T17:38:42;13.00;99.90
32348;DHT22;18821;44.800;10.326;2023-02-18T17:41:17;12.90;1.00
32348;DHT22;18821;44.800;10.326;2023-02-18T17:43:44;12.90;99.90
32348;DHT22;18821;44.800;10.326;2023-02-18T17:46:20;12.70;1.00
32348;DHT22;18821;44.800;10.326;2023-02-18T17:48:46;12.70;99.90
32348;DHT22;18821;44.800;10.326;2023-02-18T17:51:39;12.60;1.00
32348;DHT22;18821;44.800;10.326;2023-02-18T17:54:12;12.50;1.00
32348;DHT22;18821;44.800;10.326;2023-02-18T17:56:39;12.50;1.00
32348;DHT22;18821;44.800;10.326;2023-02-18T17:59:10;12.50;1.00
32348;DHT22;18821;44.800;10.326;2023-02-18T18:01:37;12.50;99.90
32348;DHT22;18821;44.800;10.326;2023-02-18T18:04:09;12.40;99.90
32348;DHT22;18821;44.800;10.326;2023-02-18T18:06:36;12.40;99.90
32348;DHT22;18821;44.800;10.326;2023-02-18T18:09:04;12.30;1.00
32348;DHT22;18821;44.800;10.326;2023-02-18T18:11:30;12.30;1.00
32348;DHT22;18821;44.800;10.326;2023-02-18T18:13:57;12.30;1.00
32348;DHT22;18821;44.800;10.326;2023-02-18T18:16:26;12.40;1.00
32348;DHT22;18821;44.800;10.326;2023-02-18T18:18:52;12.40;1.00
32348;DHT22;18821;44.800;10.326;2023-02-18T18:21:30;12.40;3.60
32348;DHT22;18821;44.800;10.326;2023-02-18T18:23:57;12.40;1.00
32348;DHT22;18821;44.800;10.326;2023-02-18T18:26:23;12.40;21.00
32348;DHT22;18821;44.800;10.326;2023-02-18T18:28:50;12.40;1.00
32348;DHT22;18821;44.800;10.326;2023-02-18T18:31:17;12.50;3.10